Terminal Aerodrome Forecast
Issued by NWS Louisville, KY

Home | Current Version | Previous Version | Text Only | Print | Product List | Glossary Off
Versions: 1 2 3 4 5 6 7 8 9 10 11 12 13 14 15 16 17 18 19 20 21 22

000
FTUS43 KLMK 281125
TAFLEX
TAF
KLEX 281125Z 2812/2912 20007KT P6SM SCT015 SCT100 BKN200
      TEMPO 2812/2813 BKN015
     FM281300 21010KT P6SM SCT020 BKN040
      TEMPO 2813/2816 BKN020
     FM281700 22012G19KT P6SM BKN035
     FM282300 24011KT P6SM VCTS BKN040CB
     FM290400 26006KT P6SM SCT030 SCT250=

USA.gov is the U.S. government's official web portal to all federal, state and local government web resources and services.